sensor_id;sensor_type;location;lat;lon;timestamp;P1;durP1;ratioP1;P2;durP2;ratioP2
10493;SDS011;5294;49.410;8.698;2023-02-15T00:00:36;40.37;;;32.90;;
10493;SDS011;5294;49.410;8.698;2023-02-15T00:03:05;39.30;;;32.77;;
10493;SDS011;5294;49.410;8.698;2023-02-15T00:05:31;41.43;;;33.67;;
10493;SDS011;5294;49.410;8.698;2023-02-15T00:07:59;44.03;;;33.93;;
10493;SDS011;5294;49.410;8.698;2023-02-15T00:10:25;42.93;;;32.97;;
10493;SDS011;5294;49.410;8.698;2023-02-15T00:12:51;40.53;;;33.97;;
10493;SDS011;5294;49.410;8.698;2023-02-15T00:15:17;42.77;;;33.50;;
10493;SDS011;5294;49.410;8.698;2023-02-15T00:17:43;42.73;;;34.03;;
10493;SDS011;5294;49.410;8.698;2023-02-15T00:20:11;41.63;;;33.57;;
10493;SDS011;5294;49.410;8.698;2023-02-15T00:22:39;45.10;;;35.30;;
10493;SDS011;5294;49.410;8.698;2023-02-15T00:25:08;43.80;;;34.00;;
10493;SDS011;5294;49.410;8.698;2023-02-15T00:27:33;44.27;;;35.10;;
10493;SDS011;5294;49.410;8.698;2023-02-15T00:29:59;45.30;;;34.43;;
10493;SDS011;5294;49.410;8.698;2023-02-15T00:32:25;43.60;;;35.43;;
10493;SDS011;5294;49.410;8.698;2023-02-15T00:34:51;44.07;;;34.00;;
10493;SDS011;5294;49.410;8.698;2023-02-15T00:37:17;47.93;;;34.63;;
10493;SDS011;5294;49.410;8.698;2023-02-15T00:39:46;42.30;;;35.17;;
10493;SDS011;5294;49.410;8.698;2023-02-15T00:42:12;40.83;;;33.30;;
10493;SDS011;5294;49.410;8.698;2023-02-15T00:44:38;44.67;;;35.53;;
10493;SDS011;5294;49.410;8.698;2023-02-15T00:47:06;47.03;;;35.53;;
10493;SDS011;5294;49.410;8.698;2023-02-15T00:49:36;46.73;;;34.80;;
10493;SDS011;5294;49.410;8.698;2023-02-15T00:52:02;43.37;;;34.63;;
10493;SDS011;5294;49.410;8.698;2023-02-15T00:54:28;42.00;;;33.60;;
10493;SDS011;5294;49.410;8.698;2023-02-15T00:56:54;45.20;;;35.33;;
10493;SDS011;5294;49.410;8.698;2023-02-15T00:59:20;44.17;;;35.27;;
10493;SDS011;5294;49.410;8.698;2023-02-15T01:01:46;45.73;;;34.93;;
10493;SDS011;5294;49.410;8.698;2023-02-15T01:04:12;45.50;;;34.53;;
10493;SDS011;5294;49.410;8.698;2023-02-15T01:06:38;44.83;;;34.87;;
10493;SDS011;5294;49.410;8.698;2023-02-15T01:09:04;44.97;;;35.43;;
10493;SDS011;5294;49.410;8.698;2023-02-15T01:11:32;43.53;;;35.53;;
10493;SDS011;5294;49.410;8.698;2023-02-15T01:13:58;42.97;;;34.47;;
10493;SDS011;5294;49.410;8.698;2023-02-15T01:16:25;42.30;;;35.70;;
10493;SDS011;5294;49.410;8.698;2023-02-15T01:18:51;40.93;;;34.67;;
10493;SDS011;5294;49.410;8.698;2023-02-15T01:21:20;39.87;;;34.17;;
10493;SDS011;5294;49.410;8.698;2023-02-15T01:23:46;41.63;;;34.53;;
10493;SDS011;5294;49.410;8.698;2023-02-15T01:26:12;39.20;;;34.33;;
10493;SDS011;5294;49.410;8.698;2023-02-15T01:28:41;40.30;;;33.97;;
10493;SDS011;5294;49.410;8.698;2023-02-15T01:31:11;41.67;;;33.50;;
10493;SDS011;5294;49.410;8.698;2023-02-15T01:33:39;45.90;;;36.03;;
10493;SDS011;5294;49.410;8.698;2023-02-15T01:36:06;45.27;;;36.03;;
10493;SDS011;5294;49.410;8.698;2023-02-15T01:38:32;50.97;;;35.40;;
10493;SDS011;5294;49.410;8.698;2023-02-15T01:41:00;48.37;;;36.07;;
10493;SDS011;5294;49.410;8.698;2023-02-15T01:43:46;49.03;;;36.37;;
10493;SDS011;5294;49.410;8.698;2023-02-15T01:46:13;48.50;;;35.97;;
10493;SDS011;5294;49.410;8.698;2023-02-15T01:48:41;48.47;;;36.70;;
10493;SDS011;5294;49.410;8.698;2023-02-15T01:51:09;47.23;;;35.70;;
10493;SDS011;5294;49.410;8.698;2023-02-15T01:53:39;51.60;;;37.67;;
10493;SDS011;5294;49.410;8.698;2023-02-15T01:56:08;46.97;;;37.00;;
10493;SDS011;5294;49.410;8.698;2023-02-15T01:58:36;44.53;;;35.40;;
10493;SDS011;5294;49.410;8.698;2023-02-15T02:01:05;47.80;;;36.20;;
10493;SDS011;5294;49.410;8.698;2023-02-15T02:06:05;46.37;;;34.77;;
10493;SDS011;5294;49.410;8.698;2023-02-15T02:08:31;45.00;;;36.23;;
10493;SDS011;5294;49.410;8.698;2023-02-15T02:10:57;48.67;;;36.47;;
10493;SDS011;5294;49.410;8.698;2023-02-15T02:13:25;45.13;;;35.70;;
10493;SDS011;5294;49.410;8.698;2023-02-15T02:15:54;48.27;;;36.93;;
10493;SDS011;5294;49.410;8.698;2023-02-15T02:31:36;46.80;;;35.60;;
10493;SDS011;5294;49.410;8.698;2023-02-15T02:36:48;44.50;;;35.73;;
10493;SDS011;5294;49.410;8.698;2023-02-15T02:49:30;41.07;;;33.60;;
10493;SDS011;5294;49.410;8.698;2023-02-15T02:52:03;40.50;;;34.57;;
10493;SDS011;5294;49.410;8.698;2023-02-15T02:54:30;41.33;;;33.70;;
10493;SDS011;5294;49.410;8.698;2023-02-15T02:56:59;43.93;;;33.50;;
10493;SDS011;5294;49.410;8.698;2023-02-15T02:59:28;41.03;;;34.27;;
10493;SDS011;5294;49.410;8.698;2023-02-15T03:02:00;38.93;;;32.20;;
10493;SDS011;5294;49.410;8.698;2023-02-15T03:04:32;41.47;;;34.57;;
10493;SDS011;5294;49.410;8.698;2023-02-15T03:07:01;38.07;;;32.60;;
10493;SDS011;5294;49.410;8.698;2023-02-15T03:09:29;36.00;;;30.73;;
10493;SDS011;5294;49.410;8.698;2023-02-15T03:12:07;35.93;;;30.50;;
10493;SDS011;5294;49.410;8.698;2023-02-15T03:14:36;36.20;;;31.93;;
10493;SDS011;5294;49.410;8.698;2023-02-15T03:17:03;39.50;;;33.40;;
10493;SDS011;5294;49.410;8.698;2023-02-15T03:19:32;38.93;;;33.23;;
10493;SDS011;5294;49.410;8.698;2023-02-15T03:22:04;37.33;;;32.47;;
10493;SDS011;5294;49.410;8.698;2023-02-15T03:27:20;38.43;;;33.27;;
10493;SDS011;5294;49.410;8.698;2023-02-15T03:29:50;40.10;;;34.23;;
10493;SDS011;5294;49.410;8.698;2023-02-15T03:32:19;39.47;;;32.63;;
10493;SDS011;5294;49.410;8.698;2023-02-15T03:34:46;39.93;;;32.80;;
10493;SDS011;5294;49.410;8.698;2023-02-15T03:39:49;42.67;;;34.43;;
10493;SDS011;5294;49.410;8.698;2023-02-15T03:42:31;42.17;;;33.03;;
10493;SDS011;5294;49.410;8.698;2023-02-15T03:44:59;41.57;;;33.87;;
10493;SDS011;5294;49.410;8.698;2023-02-15T03:47:26;40.13;;;32.90;;
10493;SDS011;5294;49.410;8.698;2023-02-15T03:49:59;40.70;;;32.87;;
10493;SDS011;5294;49.410;8.698;2023-02-15T03:52:26;39.53;;;32.50;;
10493;SDS011;5294;49.410;8.698;2023-02-15T03:54:53;41.97;;;34.50;;
10493;SDS011;5294;49.410;8.698;2023-02-15T03:57:24;40.97;;;33.47;;
10493;SDS011;5294;49.410;8.698;2023-02-15T04:05:23;42.97;;;33.43;;
10493;SDS011;5294;49.410;8.698;2023-02-15T04:07:49;40.30;;;32.63;;
10493;SDS011;5294;49.410;8.698;2023-02-15T04:10:15;40.13;;;32.77;;
10493;SDS011;5294;49.410;8.698;2023-02-15T04:12:59;38.87;;;32.80;;
10493;SDS011;5294;49.410;8.698;2023-02-15T04:15:27;42.80;;;33.97;;
10493;SDS011;5294;49.410;8.698;2023-02-15T04:18:12;40.33;;;32.30;;
10493;SDS011;5294;49.410;8.698;2023-02-15T04:20:43;38.30;;;33.00;;
10493;SDS011;5294;49.410;8.698;2023-02-15T04:23:28;40.80;;;33.27;;
10493;SDS011;5294;49.410;8.698;2023-02-15T04:26:15;37.13;;;32.30;;
10493;SDS011;5294;49.410;8.698;2023-02-15T04:28:41;37.43;;;31.23;;
10493;SDS011;5294;49.410;8.698;2023-02-15T04:31:07;38.50;;;31.90;;
10493;SDS011;5294;49.410;8.698;2023-02-15T04:33:33;39.60;;;32.43;;
10493;SDS011;5294;49.410;8.698;2023-02-15T04:36:02;38.07;;;31.97;;
10493;SDS011;5294;49.410;8.698;2023-02-15T04:38:28;35.53;;;31.57;;
10493;SDS011;5294;49.410;8.698;2023-02-15T04:40:57;36.63;;;31.23;;
10493;SDS011;5294;49.410;8.698;2023-02-15T04:43:23;35.97;;;30.90;;
10493;SDS011;5294;49.410;8.698;2023-02-15T04:45:49;35.67;;;30.67;;
10493;SDS011;5294;49.410;8.698;2023-02-15T04:48:17;37.87;;;30.60;;
10493;SDS011;5294;49.410;8.698;2023-02-15T04:50:44;35.73;;;31.00;;
10493;SDS011;5294;49.410;8.698;2023-02-15T04:53:10;37.40;;;31.60;;
10493;SDS011;5294;49.410;8.698;2023-02-15T04:55:36;36.83;;;31.23;;
10493;SDS011;5294;49.410;8.698;2023-02-15T04:58:05;35.13;;;29.80;;
10493;SDS011;5294;49.410;8.698;2023-02-15T05:00:33;33.97;;;30.23;;
10493;SDS011;5294;49.410;8.698;2023-02-15T05:03:01;36.10;;;28.63;;
10493;SDS011;5294;49.410;8.698;2023-02-15T05:05:29;35.23;;;31.07;;
10493;SDS011;5294;49.410;8.698;2023-02-15T05:07:55;36.50;;;31.77;;
10493;SDS011;5294;49.410;8.698;2023-02-15T05:10:21;38.23;;;31.53;;
10493;SDS011;5294;49.410;8.698;2023-02-15T05:12:48;37.23;;;30.83;;
10493;SDS011;5294;49.410;8.698;2023-02-15T05:15:14;37.30;;;31.97;;
10493;SDS011;5294;49.410;8.698;2023-02-15T05:17:42;39.70;;;34.13;;
10493;SDS011;5294;49.410;8.698;2023-02-15T05:20:08;36.93;;;30.67;;
10493;SDS011;5294;49.410;8.698;2023-02-15T05:22:34;37.27;;;31.33;;
10493;SDS011;5294;49.410;8.698;2023-02-15T05:25:02;37.33;;;31.97;;
10493;SDS011;5294;49.410;8.698;2023-02-15T05:27:50;40.60;;;33.87;;
10493;SDS011;5294;49.410;8.698;2023-02-15T05:30:34;40.27;;;33.37;;
10493;SDS011;5294;49.410;8.698;2023-02-15T05:33:00;37.43;;;31.37;;
10493;SDS011;5294;49.410;8.698;2023-02-15T05:35:29;39.40;;;32.87;;
10493;SDS011;5294;49.410;8.698;2023-02-15T05:37:55;39.33;;;33.10;;
10493;SDS011;5294;49.410;8.698;2023-02-15T05:40:21;36.23;;;30.77;;
10493;SDS011;5294;49.410;8.698;2023-02-15T05:42:47;38.60;;;29.83;;
10493;SDS011;5294;49.410;8.698;2023-02-15T05:45:13;33.60;;;29.20;;
10493;SDS011;5294;49.410;8.698;2023-02-15T05:47:41;36.43;;;30.57;;
10493;SDS011;5294;49.410;8.698;2023-02-15T05:50:12;39.80;;;32.00;;
10493;SDS011;5294;49.410;8.698;2023-02-15T05:52:40;51.10;;;35.60;;
10493;SDS011;5294;49.410;8.698;2023-02-15T05:55:09;40.50;;;31.67;;
10493;SDS011;5294;49.410;8.698;2023-02-15T05:57:39;36.60;;;30.83;;
10493;SDS011;5294;49.410;8.698;2023-02-15T06:00:08;38.87;;;30.27;;
10493;SDS011;5294;49.410;8.698;2023-02-15T06:02:35;40.20;;;31.53;;
10493;SDS011;5294;49.410;8.698;2023-02-15T06:05:04;36.87;;;30.27;;
10493;SDS011;5294;49.410;8.698;2023-02-15T06:07:32;38.47;;;33.03;;
10493;SDS011;5294;49.410;8.698;2023-02-15T06:09:58;40.30;;;34.53;;
10493;SDS011;5294;49.410;8.698;2023-02-15T06:12:24;35.37;;;30.67;;
10493;SDS011;5294;49.410;8.698;2023-02-15T06:14:50;39.03;;;32.43;;
10493;SDS011;5294;49.410;8.698;2023-02-15T06:17:16;36.27;;;30.50;;
10493;SDS011;5294;49.410;8.698;2023-02-15T06:19:42;38.47;;;30.90;;
10493;SDS011;5294;49.410;8.698;2023-02-15T06:22:11;36.63;;;31.03;;
10493;SDS011;5294;49.410;8.698;2023-02-15T06:24:38;39.60;;;32.80;;
10493;SDS011;5294;49.410;8.698;2023-02-15T06:27:05;40.90;;;31.47;;
10493;SDS011;5294;49.410;8.698;2023-02-15T06:29:33;35.83;;;30.53;;
10493;SDS011;5294;49.410;8.698;2023-02-15T06:31:59;39.33;;;31.67;;
10493;SDS011;5294;49.410;8.698;2023-02-15T06:34:25;37.60;;;31.43;;
10493;SDS011;5294;49.410;8.698;2023-02-15T06:36:53;34.83;;;30.17;;
10493;SDS011;5294;49.410;8.698;2023-02-15T06:39:24;36.87;;;32.47;;
10493;SDS011;5294;49.410;8.698;2023-02-15T06:41:50;37.20;;;32.23;;
10493;SDS011;5294;49.410;8.698;2023-02-15T06:44:18;39.50;;;33.90;;
10493;SDS011;5294;49.410;8.698;2023-02-15T06:46:44;36.70;;;32.87;;
10493;SDS011;5294;49.410;8.698;2023-02-15T06:49:13;36.70;;;31.83;;
10493;SDS011;5294;49.410;8.698;2023-02-15T06:51:39;36.97;;;32.63;;
10493;SDS011;5294;49.410;8.698;2023-02-15T06:54:07;38.30;;;33.83;;
10493;SDS011;5294;49.410;8.698;2023-02-15T06:56:33;37.40;;;32.60;;
10493;SDS011;5294;49.410;8.698;2023-02-15T06:59:04;38.90;;;34.03;;
10493;SDS011;5294;49.410;8.698;2023-02-15T07:01:30;39.57;;;33.57;;
10493;SDS011;5294;49.410;8.698;2023-02-15T07:03:58;37.47;;;33.43;;
10493;SDS011;5294;49.410;8.698;2023-02-15T07:06:24;36.93;;;32.00;;
10493;SDS011;5294;49.410;8.698;2023-02-15T07:08:50;39.73;;;32.63;;
10493;SDS011;5294;49.410;8.698;2023-02-15T07:11:19;39.93;;;33.30;;
10493;SDS011;5294;49.410;8.698;2023-02-15T07:14:06;37.93;;;33.83;;
10493;SDS011;5294;49.410;8.698;2023-02-15T07:16:32;37.30;;;32.40;;
10493;SDS011;5294;49.410;8.698;2023-02-15T07:19:03;39.33;;;32.93;;
10493;SDS011;5294;49.410;8.698;2023-02-15T07:21:29;35.10;;;31.40;;
10493;SDS011;5294;49.410;8.698;2023-02-15T07:23:57;36.93;;;32.87;;
10493;SDS011;5294;49.410;8.698;2023-02-15T07:26:23;38.07;;;34.00;;
10493;SDS011;5294;49.410;8.698;2023-02-15T07:28:51;38.67;;;33.03;;
10493;SDS011;5294;49.410;8.698;2023-02-15T07:31:17;34.77;;;31.00;;
10493;SDS011;5294;49.410;8.698;2023-02-15T07:33:46;36.00;;;32.07;;
10493;SDS011;5294;49.410;8.698;2023-02-15T07:36:14;36.80;;;32.00;;
10493;SDS011;5294;49.410;8.698;2023-02-15T07:38:41;38.07;;;32.97;;
10493;SDS011;5294;49.410;8.698;2023-02-15T07:41:11;38.63;;;34.20;;
10493;SDS011;5294;49.410;8.698;2023-02-15T07:43:38;35.90;;;32.10;;
10493;SDS011;5294;49.410;8.698;2023-02-15T07:46:08;38.83;;;33.17;;
10493;SDS011;5294;49.410;8.698;2023-02-15T07:48:35;36.53;;;32.53;;
10493;SDS011;5294;49.410;8.698;2023-02-15T07:51:04;40.40;;;32.60;;
10493;SDS011;5294;49.410;8.698;2023-02-15T07:53:31;34.93;;;31.07;;
10493;SDS011;5294;49.410;8.698;2023-02-15T07:56:04;34.30;;;30.57;;
10493;SDS011;5294;49.410;8.698;2023-02-15T07:58:31;36.70;;;31.60;;
10493;SDS011;5294;49.410;8.698;2023-02-15T08:01:16;37.90;;;32.87;;
10493;SDS011;5294;49.410;8.698;2023-02-15T08:03:42;40.43;;;34.73;;
10493;SDS011;5294;49.410;8.698;2023-02-15T08:06:11;37.53;;;32.00;;
10493;SDS011;5294;49.410;8.698;2023-02-15T08:08:38;38.07;;;32.23;;
10493;SDS011;5294;49.410;8.698;2023-02-15T08:11:17;35.23;;;31.47;;
10493;SDS011;5294;49.410;8.698;2023-02-15T08:16:47;35.63;;;31.00;;
10493;SDS011;5294;49.410;8.698;2023-02-15T08:19:17;35.93;;;31.47;;
10493;SDS011;5294;49.410;8.698;2023-02-15T08:21:45;36.30;;;32.47;;
10493;SDS011;5294;49.410;8.698;2023-02-15T08:24:11;37.87;;;33.77;;
10493;SDS011;5294;49.410;8.698;2023-02-15T08:26:38;37.23;;;33.30;;
10493;SDS011;5294;49.410;8.698;2023-02-15T08:29:04;39.10;;;34.43;;
10493;SDS011;5294;49.410;8.698;2023-02-15T08:31:33;39.27;;;34.97;;
10493;SDS011;5294;49.410;8.698;2023-02-15T08:34:03;39.23;;;33.90;;
10493;SDS011;5294;49.410;8.698;2023-02-15T08:36:31;39.13;;;34.93;;
10493;SDS011;5294;49.410;8.698;2023-02-15T08:38:57;39.90;;;35.30;;
10493;SDS011;5294;49.410;8.698;2023-02-15T08:41:28;40.30;;;34.17;;
10493;SDS011;5294;49.410;8.698;2023-02-15T08:43:58;38.33;;;34.13;;
10493;SDS011;5294;49.410;8.698;2023-02-15T08:46:28;39.57;;;34.87;;
10493;SDS011;5294;49.410;8.698;2023-02-15T08:48:57;36.97;;;32.87;;
10493;SDS011;5294;49.410;8.698;2023-02-15T08:51:24;39.80;;;34.70;;
10493;SDS011;5294;49.410;8.698;2023-02-15T08:53:53;38.27;;;34.27;;
10493;SDS011;5294;49.410;8.698;2023-02-15T08:56:22;36.77;;;32.90;;
10493;SDS011;5294;49.410;8.698;2023-02-15T08:58:51;36.80;;;32.90;;
10493;SDS011;5294;49.410;8.698;2023-02-15T09:01:23;35.03;;;31.40;;
10493;SDS011;5294;49.410;8.698;2023-02-15T09:03:50;35.60;;;31.73;;
10493;SDS011;5294;49.410;8.698;2023-02-15T09:06:20;35.13;;;31.40;;
10493;SDS011;5294;49.410;8.698;2023-02-15T09:08:47;35.10;;;31.43;;
10493;SDS011;5294;49.410;8.698;2023-02-15T09:11:14;38.77;;;34.43;;
10493;SDS011;5294;49.410;8.698;2023-02-15T09:13:47;37.13;;;33.20;;
10493;SDS011;5294;49.410;8.698;2023-02-15T09:16:14;37.30;;;32.87;;
10493;SDS011;5294;49.410;8.698;2023-02-15T09:18:42;37.87;;;33.90;;
10493;SDS011;5294;49.410;8.698;2023-02-15T09:21:11;34.57;;;30.97;;
10493;SDS011;5294;49.410;8.698;2023-02-15T09:23:41;37.53;;;33.53;;
10493;SDS011;5294;49.410;8.698;2023-02-15T09:26:11;35.70;;;31.97;;
10493;SDS011;5294;49.410;8.698;2023-02-15T09:28:42;35.10;;;31.47;;
10493;SDS011;5294;49.410;8.698;2023-02-15T09:31:12;36.47;;;32.60;;
10493;SDS011;5294;49.410;8.698;2023-02-15T09:33:39;35.13;;;31.23;;
10493;SDS011;5294;49.410;8.698;2023-02-15T09:36:15;37.77;;;32.50;;
10493;SDS011;5294;49.410;8.698;2023-02-15T09:38:44;39.23;;;35.03;;
10493;SDS011;5294;49.410;8.698;2023-02-15T09:48:54;37.67;;;33.07;;
10493;SDS011;5294;49.410;8.698;2023-02-15T09:51:57;35.57;;;31.67;;
10493;SDS011;5294;49.410;8.698;2023-02-15T09:57:04;35.10;;;31.33;;
10493;SDS011;5294;49.410;8.698;2023-02-15T10:28:19;33.03;;;29.53;;
10493;SDS011;5294;49.410;8.698;2023-02-15T10:30:47;36.67;;;32.77;;
10493;SDS011;5294;49.410;8.698;2023-02-15T10:33:16;33.57;;;30.03;;
10493;SDS011;5294;49.410;8.698;2023-02-15T10:54:40;32.03;;;28.63;;
10493;SDS011;5294;49.410;8.698;2023-02-15T11:10:32;36.70;;;31.13;;
10493;SDS011;5294;49.410;8.698;2023-02-15T11:12:40;35.47;;;31.67;;
10493;SDS011;5294;49.410;8.698;2023-02-15T11:15:24;34.90;;;31.17;;
10493;SDS011;5294;49.410;8.698;2023-02-15T11:18:02;35.90;;;30.00;;
10493;SDS011;5294;49.410;8.698;2023-02-15T11:20:36;32.40;;;28.90;;
10493;SDS011;5294;49.410;8.698;2023-02-15T11:23:06;32.57;;;28.90;;
10493;SDS011;5294;49.410;8.698;2023-02-15T11:25:40;30.40;;;27.30;;
10493;SDS011;5294;49.410;8.698;2023-02-15T11:28:10;32.67;;;29.33;;
10493;SDS011;5294;49.410;8.698;2023-02-15T11:30:47;33.37;;;29.87;;
10493;SDS011;5294;49.410;8.698;2023-02-15T11:33:18;38.30;;;31.37;;
10493;SDS011;5294;49.410;8.698;2023-02-15T11:38:28;35.03;;;31.53;;
10493;SDS011;5294;49.410;8.698;2023-02-15T11:40:57;31.63;;;28.33;;
10493;SDS011;5294;49.410;8.698;2023-02-15T11:46:07;30.23;;;27.13;;
10493;SDS011;5294;49.410;8.698;2023-02-15T11:48:34;28.90;;;25.93;;
10493;SDS011;5294;49.410;8.698;2023-02-15T11:51:01;30.70;;;27.60;;
10493;SDS011;5294;49.410;8.698;2023-02-15T11:53:31;32.70;;;29.20;;
10493;SDS011;5294;49.410;8.698;2023-02-15T11:55:57;29.93;;;26.93;;
10493;SDS011;5294;49.410;8.698;2023-02-15T12:00:52;29.70;;;26.70;;
10493;SDS011;5294;49.410;8.698;2023-02-15T12:05:47;29.40;;;26.40;;
10493;SDS011;5294;49.410;8.698;2023-02-15T12:08:21;31.57;;;28.37;;
10493;SDS011;5294;49.410;8.698;2023-02-15T12:13:17;29.97;;;26.97;;
10493;SDS011;5294;49.410;8.698;2023-02-15T12:15:47;28.67;;;25.57;;
10493;SDS011;5294;49.410;8.698;2023-02-15T12:18:17;27.77;;;24.97;;
10493;SDS011;5294;49.410;8.698;2023-02-15T12:20:44;29.47;;;25.20;;
10493;SDS011;5294;49.410;8.698;2023-02-15T12:23:14;29.20;;;26.27;;
10493;SDS011;5294;49.410;8.698;2023-02-15T12:25:41;27.67;;;24.87;;
10493;SDS011;5294;49.410;8.698;2023-02-15T12:30:52;29.57;;;26.63;;
10493;SDS011;5294;49.410;8.698;2023-02-15T12:35:59;26.87;;;23.97;;
10493;SDS011;5294;49.410;8.698;2023-02-15T12:38:26;28.23;;;25.27;;
10493;SDS011;5294;49.410;8.698;2023-02-15T12:40:58;29.77;;;25.50;;
10493;SDS011;5294;49.410;8.698;2023-02-15T12:43:29;29.30;;;26.30;;
10493;SDS011;5294;49.410;8.698;2023-02-15T12:49:18;26.90;;;24.10;;
10493;SDS011;5294;49.410;8.698;2023-02-15T12:56:47;28.10;;;25.23;;
10493;SDS011;5294;49.410;8.698;2023-02-15T12:59:14;27.73;;;25.03;;
10493;SDS011;5294;49.410;8.698;2023-02-15T13:01:45;29.00;;;26.20;;
10493;SDS011;5294;49.410;8.698;2023-02-15T13:04:22;26.90;;;24.20;;
10493;SDS011;5294;49.410;8.698;2023-02-15T13:06:49;26.67;;;24.07;;
10493;SDS011;5294;49.410;8.698;2023-02-15T13:09:21;26.30;;;23.63;;
10493;SDS011;5294;49.410;8.698;2023-02-15T13:11:50;25.47;;;23.00;;
10493;SDS011;5294;49.410;8.698;2023-02-15T13:14:16;28.73;;;25.83;;
10493;SDS011;5294;49.410;8.698;2023-02-15T13:16:47;34.17;;;30.67;;
10493;SDS011;5294;49.410;8.698;2023-02-15T13:19:17;35.90;;;31.83;;
10493;SDS011;5294;49.410;8.698;2023-02-15T13:21:45;40.00;;;35.73;;
10493;SDS011;5294;49.410;8.698;2023-02-15T13:26:44;36.97;;;33.07;;
10493;SDS011;5294;49.410;8.698;2023-02-15T13:29:24;40.23;;;36.03;;
10493;SDS011;5294;49.410;8.698;2023-02-15T13:31:53;42.23;;;35.90;;
10493;SDS011;5294;49.410;8.698;2023-02-15T13:34:23;36.67;;;32.87;;
10493;SDS011;5294;49.410;8.698;2023-02-15T13:39:22;37.27;;;33.57;;
10493;SDS011;5294;49.410;8.698;2023-02-15T13:42:12;38.10;;;34.00;;
10493;SDS011;5294;49.410;8.698;2023-02-15T13:52:31;39.63;;;35.53;;
10493;SDS011;5294;49.410;8.698;2023-02-15T14:03:26;40.37;;;36.13;;
10493;SDS011;5294;49.410;8.698;2023-02-15T14:06:09;39.33;;;35.33;;
10493;SDS011;5294;49.410;8.698;2023-02-15T14:21:30;41.00;;;33.53;;
10493;SDS011;5294;49.410;8.698;2023-02-15T14:29:14;40.20;;;33.87;;
10493;SDS011;5294;49.410;8.698;2023-02-15T14:31:43;37.83;;;33.77;;
10493;SDS011;5294;49.410;8.698;2023-02-15T14:34:31;38.80;;;34.77;;
10493;SDS011;5294;49.410;8.698;2023-02-15T14:36:58;46.73;;;33.17;;
10493;SDS011;5294;49.410;8.698;2023-02-15T14:42:33;39.17;;;35.23;;
10493;SDS011;5294;49.410;8.698;2023-02-15T14:45:04;38.13;;;34.03;;
10493;SDS011;5294;49.410;8.698;2023-02-15T14:47:36;36.77;;;32.83;;
10493;SDS011;5294;49.410;8.698;2023-02-15T14:53:33;36.33;;;32.63;;
10493;SDS011;5294;49.410;8.698;2023-02-15T14:55:41;37.43;;;33.63;;
10493;SDS011;5294;49.410;8.698;2023-02-15T14:58:10;35.67;;;32.03;;
10493;SDS011;5294;49.410;8.698;2023-02-15T15:00:37;36.83;;;32.23;;
10493;SDS011;5294;49.410;8.698;2023-02-15T15:03:10;37.10;;;32.60;;
10493;SDS011;5294;49.410;8.698;2023-02-15T15:05:37;37.03;;;32.93;;
10493;SDS011;5294;49.410;8.698;2023-02-15T15:08:21;43.30;;;33.17;;
10493;SDS011;5294;49.410;8.698;2023-02-15T15:10:48;38.33;;;34.43;;
10493;SDS011;5294;49.410;8.698;2023-02-15T15:18:47;92.60;;;38.07;;
10493;SDS011;5294;49.410;8.698;2023-02-15T15:23:57;49.63;;;32.20;;
10493;SDS011;5294;49.410;8.698;2023-02-15T15:26:27;60.53;;;34.30;;
10493;SDS011;5294;49.410;8.698;2023-02-15T15:28:53;37.63;;;32.20;;
10493;SDS011;5294;49.410;8.698;2023-02-15T15:49:17;36.10;;;32.40;;
10493;SDS011;5294;49.410;8.698;2023-02-15T15:51:47;34.20;;;30.77;;
10493;SDS011;5294;49.410;8.698;2023-02-15T15:54:15;35.57;;;31.87;;
10493;SDS011;5294;49.410;8.698;2023-02-15T15:56:43;33.73;;;30.23;;
10493;SDS011;5294;49.410;8.698;2023-02-15T15:59:12;35.03;;;31.53;;
10493;SDS011;5294;49.410;8.698;2023-02-15T16:01:41;36.80;;;32.87;;
10493;SDS011;5294;49.410;8.698;2023-02-15T16:04:12;35.97;;;32.23;;
10493;SDS011;5294;49.410;8.698;2023-02-15T16:06:38;36.70;;;33.13;;
10493;SDS011;5294;49.410;8.698;2023-02-15T16:11:36;37.47;;;33.67;;
10493;SDS011;5294;49.410;8.698;2023-02-15T16:14:15;38.53;;;34.47;;
10493;SDS011;5294;49.410;8.698;2023-02-15T16:16:45;37.67;;;33.87;;
10493;SDS011;5294;49.410;8.698;2023-02-15T16:19:32;38.17;;;34.03;;
10493;SDS011;5294;49.410;8.698;2023-02-15T16:21:59;41.00;;;34.97;;
10493;SDS011;5294;49.410;8.698;2023-02-15T16:29:36;38.77;;;34.77;;
10493;SDS011;5294;49.410;8.698;2023-02-15T16:32:03;41.13;;;36.83;;
10493;SDS011;5294;49.410;8.698;2023-02-15T16:34:30;39.27;;;35.17;;
10493;SDS011;5294;49.410;8.698;2023-02-15T16:37:15;41.57;;;37.17;;
10493;SDS011;5294;49.410;8.698;2023-02-15T16:39:42;40.90;;;36.77;;
10493;SDS011;5294;49.410;8.698;2023-02-15T16:42:09;39.67;;;35.70;;
10493;SDS011;5294;49.410;8.698;2023-02-15T16:44:37;42.33;;;37.93;;
10493;SDS011;5294;49.410;8.698;2023-02-15T16:47:07;41.23;;;37.07;;
10493;SDS011;5294;49.410;8.698;2023-02-15T16:49:37;39.93;;;35.77;;
10493;SDS011;5294;49.410;8.698;2023-02-15T16:52:05;40.47;;;36.27;;
10493;SDS011;5294;49.410;8.698;2023-02-15T16:54:33;40.20;;;36.10;;
10493;SDS011;5294;49.410;8.698;2023-02-15T16:57:00;42.10;;;37.80;;
10493;SDS011;5294;49.410;8.698;2023-02-15T16:59:38;40.83;;;36.77;;
10493;SDS011;5294;49.410;8.698;2023-02-15T17:02:10;41.43;;;37.20;;
10493;SDS011;5294;49.410;8.698;2023-02-15T17:04:37;41.67;;;37.43;;
10493;SDS011;5294;49.410;8.698;2023-02-15T17:07:05;40.97;;;36.73;;
10493;SDS011;5294;49.410;8.698;2023-02-15T17:09:32;44.77;;;40.23;;
10493;SDS011;5294;49.410;8.698;2023-02-15T17:12:00;45.30;;;40.53;;
10493;SDS011;5294;49.410;8.698;2023-02-15T17:14:30;44.43;;;39.93;;
10493;SDS011;5294;49.410;8.698;2023-02-15T17:17:00;45.20;;;40.63;;
10493;SDS011;5294;49.410;8.698;2023-02-15T17:19:28;45.70;;;40.87;;
10493;SDS011;5294;49.410;8.698;2023-02-15T17:21:56;42.80;;;38.43;;
10493;SDS011;5294;49.410;8.698;2023-02-15T17:24:25;43.23;;;38.83;;
10493;SDS011;5294;49.410;8.698;2023-02-15T17:26:57;45.60;;;40.77;;
10493;SDS011;5294;49.410;8.698;2023-02-15T17:32:01;43.87;;;39.17;;
10493;SDS011;5294;49.410;8.698;2023-02-15T17:35:28;42.80;;;38.40;;
10493;SDS011;5294;49.410;8.698;2023-02-15T17:39:50;41.73;;;37.43;;
10493;SDS011;5294;49.410;8.698;2023-02-15T17:42:16;43.03;;;38.53;;
10493;SDS011;5294;49.410;8.698;2023-02-15T17:44:42;40.70;;;36.50;;
10493;SDS011;5294;49.410;8.698;2023-02-15T17:47:09;41.40;;;37.20;;
10493;SDS011;5294;49.410;8.698;2023-02-15T17:49:42;38.70;;;34.80;;
10493;SDS011;5294;49.410;8.698;2023-02-15T17:52:12;38.43;;;34.67;;
10493;SDS011;5294;49.410;8.698;2023-02-15T17:54:41;40.87;;;36.63;;
10493;SDS011;5294;49.410;8.698;2023-02-15T17:57:29;43.97;;;39.43;;
10493;SDS011;5294;49.410;8.698;2023-02-15T17:59:55;40.50;;;36.47;;
10493;SDS011;5294;49.410;8.698;2023-02-15T18:02:42;39.50;;;35.33;;
10493;SDS011;5294;49.410;8.698;2023-02-15T18:05:27;41.03;;;36.80;;
10493;SDS011;5294;49.410;8.698;2023-02-15T18:08:13;38.93;;;34.90;;
10493;SDS011;5294;49.410;8.698;2023-02-15T18:10:58;39.03;;;35.03;;
10493;SDS011;5294;49.410;8.698;2023-02-15T18:13:43;49.93;;;44.53;;
10493;SDS011;5294;49.410;8.698;2023-02-15T18:16:16;50.23;;;44.93;;
10493;SDS011;5294;49.410;8.698;2023-02-15T18:18:43;53.87;;;48.13;;
10493;SDS011;5294;49.410;8.698;2023-02-15T18:21:11;53.00;;;47.43;;
10493;SDS011;5294;49.410;8.698;2023-02-15T18:23:38;52.80;;;47.07;;
10493;SDS011;5294;49.410;8.698;2023-02-15T18:26:05;53.73;;;47.97;;
10493;SDS011;5294;49.410;8.698;2023-02-15T18:28:31;52.83;;;46.53;;
10493;SDS011;5294;49.410;8.698;2023-02-15T18:30:58;50.97;;;45.57;;